Aviation Digital Data Service (ADDS)

Output produced by METARs form (1234 UTC 18 August 2017)
found at http://aviationweather.gov/adds/metars/
 
KSLK 181138Z 1812/1912 VRB03KT P6SM OVC025 WS020/21035KT 
     TEMPO 1812/1814 -RA OVC015 
     FM181400 22005KT P6SM BKN025 
     FM181700 22006G16KT P6SM BKN030 
     TEMPO 1820/1824 3SM RA BR OVC020 
     FM190400 22004KT 3SM BR OVC015